Latest Weather Observations for Fawkner Beacon

IDV60801

Issued at 2:33 am EST Monday 1 May 2017 (issued every 30 minutes, with the page automatically refreshed every 10 minutes)

About weather observations | Map of weather stations | Latest weather observations for VIC | Other Formats
Station Details ID: 086376 Name: FAWKNER BEACON Lat: -37.91 Lon: 144.93 Height: 17.0 m
Data from the previous 72 hours. | See also: Recent months for locations in Victoria
Date/Time
EST
Temp
°C
App
Temp
°C
Dew
Point
°C
Rel
Hum
%
Delta-T
°C
Wind Press
QNH
hPa
Press
MSL
hPa
Rain since
9am
mm
Dir  Spd
km/h
Gust
km/h
Spd
kts
Gust
kts
01/02:30am - - - - - N 33 41 18 22 - - -
01/02:00am - - - - - N 32 39 17 21 - - -
01/01:30am - - - - - N 32 35 17 19 - - -
01/01:00am - - - - - N 33 39 18 21 - - -
01/12:30am - - - - - N 32 39 17 21 - - -
01/12:00am - - - - - N 33 39 18 21 - - -
 
Date/Time
EST
Temp
°C
App
Temp
°C
Dew
Point
°C
Rel
Hum
%
Delta-T
°C
Wind Press
QNH
hPa
Press
MSL
hPa
Rain since
9am
mm
Dir  Spd
km/h
Gust
km/h
Spd
kts
Gust
kts
30/11:30pm - - - - - N 37 43 20 23 - - -
30/11:00pm - - - - - N 33 41 18 22 - - -
30/10:30pm - - - - - N 33 39 18 21 - - -
30/10:00pm - - - - - N 35 43 19 23 - - -
30/09:30pm - - - - - N 41 48 22 26 - - -
30/09:00pm - - - - - N 39 46 21 25 - - -
30/08:30pm - - - - - N 39 43 21 23 - - -
30/08:00pm - - - - - N 32 35 17 19 - - -
30/07:30pm - - - - - N 30 33 16 18 - - -
30/07:00pm - - - - - N 28 33 15 18 - - -
30/06:30pm - - - - - N 26 30 14 16 - - -
30/06:00pm - - - - - NW 26 33 14 18 - - -
30/05:30pm - - - - - NW 32 35 17 19 - - -
30/05:00pm - - - - - NW 30 35 16 19 - - -
30/04:30pm - - - - - NW 33 41 18 22 - - -
30/04:00pm - - - - - NW 28 33 15 18 - - -
30/03:30pm - - - - - WNW 20 26 11 14 - - -
30/03:00pm - - - - - WNW 19 24 10 13 - - -
30/02:30pm - - - - - WNW 15 22 8 12 - - -
30/02:00pm - - - - - NW 22 28 12 15 - - -
30/01:30pm - - - - - WNW 17 20 9 11 - - -
30/01:00pm - - - - - WNW 17 22 9 12 - - -
30/12:30pm - - - - - WNW 13 20 7 11 - - -
30/12:00pm - - - - - WNW 11 17 6 9 - - -
30/11:30am - - - - - W 17 22 9 12 - - -
30/11:00am - - - - - W 17 22 9 12 - - -
30/10:30am - - - - - W 17 20 9 11 - - -
30/10:00am - - - - - WNW 13 17 7 9 - - -
30/09:30am - - - - - WNW 17 24 9 13 - - -
30/09:00am - - - - - NW 7 11 4 6 - - -
30/08:30am - - - - - WNW 11 17 6 9 - - -
30/08:00am - - - - - WNW 9 17 5 9 - - -
30/07:30am - - - - - NW 11 17 6 9 - - -
30/07:00am - - - - - NW 7 13 4 7 - - -
30/06:30am - - - - - WSW 7 15 4 8 - - -
30/06:00am - - - - - W 11 15 6 8 - - -
30/05:30am - - - - - W 17 24 9 13 - - -
30/05:00am - - - - - WNW 13 20 7 11 - - -
30/04:30am - - - - - WNW 9 15 5 8 - - -
30/04:00am - - - - - W 17 22 9 12 - - -
30/03:30am - - - - - W 20 24 11 13 - - -
30/03:00am - - - - - WSW 22 24 12 13 - - -
30/02:30am - - - - - WSW 20 24 11 13 - - -
30/02:00am - - - - - WSW 19 24 10 13 - - -
30/01:30am - - - - - WSW 17 20 9 11 - - -
30/01:00am - - - - - WSW 17 20 9 11 - - -
30/12:30am - - - - - W 15 17 8 9 - - -
30/12:00am - - - - - W 15 17 8 9 - - -
 
Date/Time
EST
Temp
°C
App
Temp
°C
Dew
Point
°C
Rel
Hum
%
Delta-T
°C
Wind Press
QNH
hPa
Press
MSL
hPa
Rain since
9am
mm
Dir  Spd
km/h
Gust
km/h
Spd
kts
Gust
kts
29/11:30pm - - - - - W 17 22 9 12 - - -
29/11:00pm - - - - - W 17 20 9 11 - - -
29/10:30pm - - - - - SSW 11 17 6 9 - - -
29/10:00pm - - - - - SSW 11 15 6 8 - - -
29/09:30pm - - - - - SSW 13 20 7 11 - - -
29/09:00pm - - - - - SSW 13 17 7 9 - - -
29/08:30pm - - - - - SSW 15 22 8 12 - - -
29/08:00pm - - - - - SSW 17 26 9 14 - - -
29/07:30pm - - - - - SSW 19 24 10 13 - - -
29/07:00pm - - - - - S 20 24 11 13 - - -
29/06:30pm - - - - - S 22 28 12 15 - - -
29/06:00pm - - - - - S 24 28 13 15 - - -
29/05:30pm - - - - - S 24 28 13 15 - - -
29/05:00pm - - - - - S 22 28 12 15 - - -
29/04:30pm - - - - - S 22 28 12 15 - - -
29/04:00pm - - - - - S 24 28 13 15 - - -
29/03:30pm - - - - - S 24 28 13 15 - - -
29/03:00pm - - - - - S 28 32 15 17 - - -
29/02:30pm - - - - - S 28 30 15 16 - - -
29/02:00pm - - - - - S 28 32 15 17 - - -
29/01:30pm - - - - - WSW 17 22 9 12 - - -
29/01:00pm - - - - - WSW 17 22 9 12 - - -
29/12:30pm - - - - - WSW 19 24 10 13 - - -
29/12:00pm - - - - - WSW 24 28 13 15 - - -
29/11:30am - - - - - WSW 24 28 13 15 - - -
29/11:00am - - - - - WSW 24 28 13 15 - - -
29/10:30am - - - - - WSW 28 32 15 17 - - -
29/10:00am - - - - - WSW 28 33 15 18 - - -
29/09:30am - - - - - W 28 33 15 18 - - -
29/09:00am - - - - - W 26 32 14 17 - - -
29/08:30am - - - - - W 33 41 18 22 - - -
29/08:00am - - - - - WNW 30 35 16 19 - - -
29/07:30am - - - - - W 30 35 16 19 - - -
29/07:00am - - - - - W 28 32 15 17 - - -
29/06:30am - - - - - W 26 30 14 16 - - -
29/06:00am - - - - - W 32 39 17 21 - - -
29/05:30am - - - - - W 32 39 17 21 - - -
29/05:00am - - - - - W 24 32 13 17 - - -
29/04:30am - - - - - W 26 32 14 17 - - -
29/04:00am - - - - - W 20 28 11 15 - - -
29/03:30am - - - - - WNW 19 26 10 14 - - -
29/03:00am - - - - - WNW 22 28 12 15 - - -
29/02:30am - - - - - WNW 19 24 10 13 - - -
29/02:00am - - - - - W 24 30 13 16 - - -
29/01:30am - - - - - W 24 32 13 17 - - -
29/01:00am - - - - - WNW 26 32 14 17 - - -
29/12:30am - - - - - W 26 32 14 17 - - -
29/12:00am - - - - - W 28 35 15 19 - - -
 
Date/Time
EST
Temp
°C
App
Temp
°C
Dew
Point
°C
Rel
Hum
%
Delta-T
°C
Wind Press
QNH
hPa
Press
MSL
hPa
Rain since
9am
mm
Dir  Spd
km/h
Gust
km/h
Spd
kts
Gust
kts
28/11:30pm - - - - - W 30 39 16 21 - - -
28/11:00pm - - - - - W 26 33 14 18 - - -
28/10:30pm - - - - - W 33 43 18 23 - - -
28/10:00pm - - - - - W 33 41 18 22 - - -
28/09:30pm - - - - - W 30 39 16 21 - - -
28/09:00pm - - - - - W 26 32 14 17 - - -
28/08:30pm - - - - - W 24 26 13 14 - - -
28/08:00pm - - - - - WSW 32 39 17 21 - - -
28/07:30pm - - - - - W 26 30 14 16 - - -
28/07:00pm - - - - - W 28 33 15 18 - - -
28/06:30pm - - - - - W 26 30 14 16 - - -
28/06:00pm - - - - - W 24 32 13 17 - - -
28/05:30pm - - - - - W 24 30 13 16 - - -
28/05:00pm - - - - - W 19 22 10 12 - - -
28/04:30pm - - - - - W 19 24 10 13 - - -
28/04:00pm - - - - - W 22 28 12 15 - - -
28/03:30pm - - - - - W 20 24 11 13 - - -
28/03:00pm - - - - - W 20 26 11 14 - - -
28/02:30pm - - - - - WSW 20 24 11 13 - - -
28/02:00pm - - - - - W 22 28 12 15 - - -
28/01:30pm - - - - - W 24 30 13 16 - - -
28/01:00pm - - - - - W 24 28 13 15 - - -
28/12:30pm - - - - - WSW 22 28 12 15 - - -
28/12:00pm - - - - - W 7 9 4 5 - - -
28/11:30am - - - - - W 13 17 7 9 - - -
28/11:00am - - - - - WNW 15 17 8 9 - - -
28/10:30am - - - - - WNW 15 22 8 12 - - -
28/10:00am - - - - - WNW 19 22 10 12 - - -
28/09:30am - - - - - WNW 15 20 8 11 - - -
28/09:00am - - - - - WNW 20 24 11 13 - - -
28/08:30am - - - - - WNW 24 26 13 14 - - -
28/08:00am - - - - - WNW 20 24 11 13 - - -
28/07:30am - - - - - WNW 22 26 12 14 - - -
28/07:00am - - - - - WNW 24 28 13 15 - - -
28/06:30am - - - - - WNW 26 30 14 16 - - -
28/06:00am - - - - - WNW 28 33 15 18 - - -
28/05:30am - - - - - WNW 26 32 14 17 - - -
28/05:00am - - - - - WNW 28 33 15 18 - - -
28/04:30am - - - - - WNW 28 32 15 17 - - -
28/04:00am - - - - - WNW 26 30 14 16 - - -
28/03:30am - - - - - W 24 28 13 15 - - -
28/03:00am - - - - - WNW 24 28 13 15 - - -

Other Formats:

Comma delimited format used in spreadsheet applications
http://www.bom.gov.au/fwo/IDV60801/IDV60801.95872.axf

JavaScript Object Notation format (JSON) in row-major order
http://www.bom.gov.au/fwo/IDV60801/IDV60801.95872.json